createdAt,value
2023-01-20T00:01:48.470Z,-1.93
2023-01-20T00:04:19.267Z,-1.95
2023-01-20T00:06:46.895Z,-1.99
2023-01-20T00:09:17.147Z,-2.05
2023-01-20T00:11:47.447Z,-2.13
2023-01-20T00:14:14.916Z,-2.17
2023-01-20T00:16:42.375Z,-2.22
2023-01-20T00:19:20.248Z,-2.15
2023-01-20T00:21:47.583Z,-2.14
2023-01-20T00:24:14.882Z,-2.19
2023-01-20T00:26:42.311Z,-2.08
2023-01-20T00:29:10.067Z,-2.01
2023-01-20T00:31:38.344Z,-2.01
2023-01-20T00:34:05.644Z,-2.05
2023-01-20T00:36:34.311Z,-2.13
2023-01-20T00:39:05.936Z,-2.17
2023-01-20T00:41:33.388Z,-2.18
2023-01-20T00:44:00.859Z,-2.28
2023-01-20T00:46:29.040Z,-2.29
2023-01-20T00:48:56.175Z,-2.38
2023-01-20T00:51:24.051Z,-2.47
2023-01-20T00:53:51.209Z,-2.54
2023-01-20T00:56:18.728Z,-2.58
2023-01-20T00:58:45.856Z,-2.67
2023-01-20T01:01:13.904Z,-2.71
2023-01-20T01:03:42.258Z,-2.67
2023-01-20T01:06:17.644Z,-2.63
2023-01-20T01:08:47.557Z,-2.55
2023-01-20T01:11:15.171Z,-2.61
2023-01-20T01:13:42.314Z,-2.66
2023-01-20T01:16:14.827Z,-2.75
2023-01-20T01:18:45.274Z,-2.82
2023-01-20T01:21:15.360Z,-2.84
2023-01-20T01:23:43.512Z,-2.88
2023-01-20T01:26:13.965Z,-2.79
2023-01-20T01:28:41.265Z,-2.86
2023-01-20T01:31:09.281Z,-2.93
2023-01-20T01:33:37.097Z,-2.97
2023-01-20T01:36:08.789Z,-3.00
2023-01-20T01:38:36.146Z,-3.03
2023-01-20T01:41:04.204Z,-3.11
2023-01-20T01:43:34.361Z,-3.08
2023-01-20T01:46:02.167Z,-2.97
2023-01-20T01:48:37.071Z,-2.89
2023-01-20T01:51:15.298Z,-2.81
2023-01-20T01:53:48.034Z,-2.70
2023-01-20T01:56:16.415Z,-2.63
2023-01-20T01:58:48.337Z,-2.59
2023-01-20T02:01:16.452Z,-2.58
2023-01-20T02:04:25.153Z,-2.52
2023-01-20T02:07:00.188Z,-2.43
2023-01-20T02:09:30.685Z,-2.35
2023-01-20T02:12:02.143Z,-2.30
2023-01-20T02:14:37.252Z,-2.27
2023-01-20T02:17:30.602Z,-2.29
2023-01-20T02:19:57.633Z,-2.33
2023-01-20T02:22:34.191Z,-2.42
2023-01-20T02:25:24.823Z,-2.49
2023-01-20T02:28:23.155Z,-2.58
2023-01-20T02:30:56.302Z,-2.59
2023-01-20T02:33:42.905Z,-2.62
2023-01-20T02:36:19.599Z,-2.69
2023-01-20T02:39:01.059Z,-2.80
2023-01-20T02:41:39.657Z,-2.80
2023-01-20T02:44:23.143Z,-2.86
2023-01-20T02:46:50.150Z,-2.88
2023-01-20T02:49:55.893Z,-2.97
2023-01-20T02:52:27.112Z,-3.00
2023-01-20T02:54:59.307Z,-2.92
2023-01-20T02:57:35.774Z,-2.98
2023-01-20T03:00:20.589Z,-2.94
2023-01-20T03:02:50.088Z,-2.90
2023-01-20T03:05:31.397Z,-2.89
2023-01-20T03:08:05.032Z,-2.92
2023-01-20T03:10:35.711Z,-2.92
2023-01-20T03:13:37.099Z,-2.88
2023-01-20T03:16:08.609Z,-2.87
2023-01-20T03:18:37.553Z,-2.86
2023-01-20T03:21:07.678Z,-2.76
2023-01-20T03:23:38.513Z,-2.66
2023-01-20T03:26:09.608Z,-2.65
2023-01-20T03:28:36.765Z,-2.58
2023-01-20T03:31:21.515Z,-2.55
2023-01-20T03:33:50.427Z,-2.50
2023-01-20T03:36:19.018Z,-2.52
2023-01-20T03:38:46.748Z,-2.56
2023-01-20T03:41:41.663Z,-2.59
2023-01-20T03:44:30.620Z,-2.61
2023-01-20T03:47:13.426Z,-2.66
2023-01-20T03:49:46.778Z,-2.66
2023-01-20T03:52:47.047Z,-2.62
2023-01-20T03:55:23.164Z,-2.73
2023-01-20T03:58:06.266Z,-2.67
2023-01-20T04:00:36.739Z,-2.61
2023-01-20T04:03:19.326Z,-2.62
2023-01-20T04:05:48.622Z,-2.64
2023-01-20T04:08:20.605Z,-2.66
2023-01-20T04:10:50.293Z,-2.63
2023-01-20T04:13:17.722Z,-2.62
2023-01-20T04:15:46.286Z,-2.63
2023-01-20T04:18:22.251Z,-2.58
2023-01-20T04:21:02.810Z,-2.51
2023-01-20T04:23:39.705Z,-2.47
2023-01-20T04:26:06.745Z,-2.42
2023-01-20T04:28:34.093Z,-2.47
2023-01-20T04:31:01.196Z,-2.48
2023-01-20T04:33:28.804Z,-2.47
2023-01-20T04:35:55.768Z,-2.50
2023-01-20T04:38:23.098Z,-2.50
2023-01-20T04:40:50.241Z,-2.55
2023-01-20T04:43:18.507Z,-2.61
2023-01-20T04:45:45.472Z,-2.68
2023-01-20T04:48:13.289Z,-2.70
2023-01-20T04:50:41.387Z,-2.71
2023-01-20T04:53:13.855Z,-2.67
2023-01-20T04:55:41.058Z,-2.66
2023-01-20T04:58:10.624Z,-2.67
2023-01-20T05:00:37.677Z,-2.73
2023-01-20T05:03:06.363Z,-2.74
2023-01-20T05:05:33.556Z,-2.77
2023-01-20T05:08:01.033Z,-2.80
2023-01-20T05:10:28.235Z,-2.81
2023-01-20T05:12:55.696Z,-2.80
2023-01-20T05:15:22.756Z,-2.80
2023-01-20T05:17:50.165Z,-2.78
2023-01-20T05:20:19.150Z,-2.78
2023-01-20T05:22:50.974Z,-2.82
2023-01-20T05:25:18.082Z,-2.82
2023-01-20T05:27:46.007Z,-2.83
2023-01-20T05:30:13.383Z,-2.81
2023-01-20T05:32:40.785Z,-2.80
2023-01-20T05:35:08.802Z,-2.80
2023-01-20T05:37:36.166Z,-2.80
2023-01-20T05:40:03.687Z,-2.80
2023-01-20T05:42:33.128Z,-2.82
2023-01-20T05:45:00.198Z,-2.80
2023-01-20T05:47:27.628Z,-2.80
2023-01-20T05:49:54.651Z,-2.76
2023-01-20T05:52:24.575Z,-2.74
2023-01-20T05:54:51.632Z,-2.71
2023-01-20T05:57:19.242Z,-2.67
2023-01-20T05:59:49.770Z,-2.61
2023-01-20T06:02:19.586Z,-2.60
2023-01-20T06:04:47.108Z,-2.61
2023-01-20T06:07:15.780Z,-2.65
2023-01-20T06:09:42.793Z,-2.66
2023-01-20T06:12:10.157Z,-2.68
2023-01-20T06:14:37.276Z,-2.70
2023-01-20T06:17:06.942Z,-2.71
2023-01-20T06:19:36.388Z,-2.70
2023-01-20T06:22:05.083Z,-2.65
2023-01-20T06:24:32.085Z,-2.66
2023-01-20T06:26:59.844Z,-2.64
2023-01-20T06:29:26.812Z,-2.61
2023-01-20T06:31:55.028Z,-2.57
2023-01-20T06:34:22.132Z,-2.50
2023-01-20T06:36:49.554Z,-2.43
2023-01-20T06:39:16.911Z,-2.36
2023-01-20T06:41:44.329Z,-2.33
2023-01-20T06:44:11.904Z,-2.28
2023-01-20T06:46:40.147Z,-2.22
2023-01-20T06:49:07.227Z,-2.21
2023-01-20T06:51:34.962Z,-2.14
2023-01-20T06:54:04.293Z,-2.08
2023-01-20T06:56:31.817Z,-2.08
2023-01-20T06:58:59.166Z,-2.05
2023-01-20T07:01:31.042Z,-1.98
2023-01-20T07:03:58.675Z,-1.97
2023-01-20T07:06:31.846Z,-1.90
2023-01-20T07:09:00.364Z,-1.84
2023-01-20T07:11:29.081Z,-1.82
2023-01-20T07:13:56.076Z,-1.74
2023-01-20T07:16:26.147Z,-1.68
2023-01-20T07:18:54.072Z,-1.64
2023-01-20T07:21:23.025Z,-1.57
2023-01-20T07:23:53.737Z,-1.52
2023-01-20T07:26:24.320Z,-1.46
2023-01-20T07:28:57.641Z,-1.38
2023-01-20T07:31:27.577Z,-1.34
2023-01-20T07:33:56.436Z,-1.31
2023-01-20T07:36:24.484Z,-1.20
2023-01-20T07:38:54.597Z,-1.16
2023-01-20T07:41:22.749Z,-1.13
2023-01-20T07:43:51.712Z,-1.07
2023-01-20T07:46:19.989Z,-0.99
2023-01-20T07:48:47.289Z,-0.95
2023-01-20T07:51:16.634Z,-0.86
2023-01-20T07:53:47.220Z,-0.84
2023-01-20T07:56:26.565Z,-0.74
2023-01-20T07:58:55.229Z,-0.68
2023-01-20T08:01:26.774Z,-0.63
2023-01-20T08:03:54.708Z,-0.60
2023-01-20T08:06:24.935Z,-0.60
2023-01-20T08:08:52.071Z,-0.46
2023-01-20T08:11:21.308Z,-0.49
2023-01-20T08:13:49.528Z,-0.49
2023-01-20T08:16:18.232Z,-0.46
2023-01-20T08:18:46.187Z,-0.43
2023-01-20T08:21:33.514Z,-0.48
2023-01-20T08:24:04.298Z,-0.41
2023-01-20T08:26:32.635Z,-0.44
2023-01-20T08:29:08.634Z,-0.41
2023-01-20T08:31:37.628Z,-0.38
2023-01-20T08:34:05.068Z,-0.33
2023-01-20T08:36:35.840Z,-0.28
2023-01-20T08:39:05.714Z,-0.30
2023-01-20T08:41:36.249Z,-0.24
2023-01-20T08:44:06.257Z,-0.30
2023-01-20T08:46:40.468Z,-0.26
2023-01-20T08:49:13.619Z,-0.22
2023-01-20T08:51:42.243Z,-0.16
2023-01-20T08:54:09.511Z,-0.20
2023-01-20T08:56:37.176Z,-0.16
2023-01-20T08:59:05.111Z,-0.20
2023-01-20T09:01:38.105Z,-0.21
2023-01-20T09:04:07.307Z,-0.17
2023-01-20T09:06:50.394Z,-0.11
2023-01-20T09:09:19.686Z,-0.14
2023-01-20T09:11:51.561Z,-0.11
2023-01-20T09:14:23.043Z,-0.08
2023-01-20T09:16:52.047Z,0.05
2023-01-20T09:19:19.366Z,0.08
2023-01-20T09:21:46.768Z,0.17
2023-01-20T09:24:14.271Z,0.26
2023-01-20T09:26:41.922Z,0.38
2023-01-20T09:29:14.329Z,0.50
2023-01-20T09:31:44.996Z,0.58
2023-01-20T09:34:19.300Z,0.76
2023-01-20T09:36:54.012Z,0.80
2023-01-20T09:39:40.371Z,0.97
2023-01-20T09:42:56.014Z,1.01
2023-01-20T09:45:25.095Z,1.04
2023-01-20T09:48:05.620Z,1.00
2023-01-20T09:51:04.592Z,1.02
2023-01-20T09:53:41.084Z,0.97
2023-01-20T09:56:22.949Z,1.02
2023-01-20T09:59:03.473Z,0.98
2023-01-20T10:01:34.962Z,1.03
2023-01-20T10:04:33.240Z,0.90
2023-01-20T10:07:11.852Z,1.01
2023-01-20T10:10:00.503Z,1.02
2023-01-20T10:12:29.873Z,1.01
2023-01-20T10:15:18.855Z,0.92
2023-01-20T10:17:58.886Z,0.94
2023-01-20T10:20:32.361Z,0.92
2023-01-20T10:23:17.070Z,1.07
2023-01-20T10:25:51.587Z,1.03
2023-01-20T10:28:41.004Z,1.07
2023-01-20T10:31:09.932Z,1.15
2023-01-20T10:33:44.164Z,1.09
2023-01-20T10:36:31.999Z,1.17
2023-01-20T10:39:04.787Z,1.24
2023-01-20T10:41:44.107Z,1.15
2023-01-20T10:44:15.823Z,1.20
2023-01-20T10:47:13.485Z,1.22
2023-01-20T10:50:16.133Z,1.26
2023-01-20T10:53:13.319Z,1.36
2023-01-20T10:56:02.496Z,1.52
2023-01-20T10:58:38.090Z,1.81
2023-01-20T11:01:09.441Z,1.95
2023-01-20T11:03:41.154Z,2.03
2023-01-20T11:06:18.378Z,1.98
2023-01-20T11:08:46.248Z,1.91
2023-01-20T11:11:17.721Z,1.84
2023-01-20T11:13:45.570Z,1.80
2023-01-20T11:16:23.201Z,1.87
2023-01-20T11:19:02.309Z,1.81
2023-01-20T11:21:33.527Z,1.88
2023-01-20T11:24:41.952Z,1.74
2023-01-20T11:27:19.350Z,1.71
2023-01-20T11:30:09.371Z,1.76
2023-01-20T11:32:40.126Z,1.88
2023-01-20T11:35:25.844Z,1.94
2023-01-20T11:37:53.333Z,1.88
2023-01-20T11:40:29.814Z,1.80
2023-01-20T11:42:59.424Z,1.79
2023-01-20T11:45:39.009Z,1.85
2023-01-20T11:48:16.846Z,1.81
2023-01-20T11:50:47.787Z,1.88
2023-01-20T11:53:17.952Z,1.68
2023-01-20T11:55:57.583Z,1.71
2023-01-20T11:58:32.318Z,1.61
2023-01-20T12:01:06.227Z,1.53
2023-01-20T12:04:04.592Z,1.56
2023-01-20T12:06:46.053Z,1.61
2023-01-20T12:09:20.011Z,1.64
2023-01-20T12:12:15.316Z,1.77
2023-01-20T12:14:45.895Z,1.82
2023-01-20T12:17:46.643Z,1.84
2023-01-20T12:20:24.685Z,1.90
2023-01-20T12:23:21.556Z,1.95
2023-01-20T12:25:53.763Z,1.98
2023-01-20T12:28:27.702Z,2.04
2023-01-20T12:31:24.321Z,2.12
2023-01-20T12:33:55.013Z,2.09
2023-01-20T12:36:59.971Z,1.91
2023-01-20T12:39:27.401Z,1.87
2023-01-20T12:42:10.009Z,1.90
2023-01-20T12:44:46.702Z,1.87
2023-01-20T12:47:51.336Z,1.88
2023-01-20T12:50:49.868Z,1.88
2023-01-20T12:53:43.843Z,1.82
2023-01-20T12:56:45.139Z,1.79
2023-01-20T12:59:32.062Z,1.79
2023-01-20T13:02:08.326Z,1.80
2023-01-20T13:05:03.619Z,1.77
2023-01-20T13:07:44.137Z,1.77
2023-01-20T13:10:29.634Z,1.72
2023-01-20T13:13:14.009Z,1.72
2023-01-20T13:15:46.228Z,1.77
2023-01-20T13:18:19.744Z,1.72
2023-01-20T13:20:47.036Z,1.69
2023-01-20T13:23:24.429Z,1.74
2023-01-20T13:25:52.569Z,1.77
2023-01-20T13:28:23.811Z,1.84
2023-01-20T13:30:54.419Z,1.80
2023-01-20T13:33:28.611Z,1.88
2023-01-20T13:35:56.350Z,1.83
2023-01-20T13:38:28.005Z,1.82
2023-01-20T13:41:03.568Z,1.89
2023-01-20T13:43:30.995Z,1.84
2023-01-20T13:46:04.610Z,1.83
2023-01-20T13:48:36.461Z,1.82
2023-01-20T13:51:29.824Z,1.77
2023-01-20T13:54:25.682Z,1.76
2023-01-20T13:56:52.910Z,1.81
2023-01-20T13:59:21.063Z,1.83
2023-01-20T14:01:48.382Z,1.79
2023-01-20T14:04:19.025Z,1.81
2023-01-20T14:06:48.075Z,1.78
2023-01-20T14:09:24.000Z,1.81
2023-01-20T14:11:57.053Z,1.83
2023-01-20T14:14:26.483Z,1.82
2023-01-20T14:16:55.807Z,1.81
2023-01-20T14:19:36.342Z,1.79
2023-01-20T14:22:27.940Z,1.83
2023-01-20T14:25:00.276Z,1.81
2023-01-20T14:27:32.435Z,1.78
2023-01-20T14:30:19.266Z,1.80
2023-01-20T14:32:47.332Z,1.77
2023-01-20T14:35:34.122Z,1.75
2023-01-20T14:38:01.260Z,1.73
2023-01-20T14:40:32.059Z,1.72
2023-01-20T14:43:01.371Z,1.65
2023-01-20T14:45:34.712Z,1.63
2023-01-20T14:48:02.993Z,1.64
2023-01-20T14:50:30.603Z,1.63
2023-01-20T14:53:02.574Z,1.60
2023-01-20T14:55:35.657Z,1.57
2023-01-20T14:58:30.684Z,1.54
2023-01-20T15:01:04.263Z,1.52
2023-01-20T15:03:31.911Z,1.47
2023-01-20T15:06:09.198Z,1.45
2023-01-20T15:08:37.375Z,1.43
2023-01-20T15:11:12.899Z,1.42
2023-01-20T15:13:41.633Z,1.39
2023-01-20T15:16:27.670Z,1.37
2023-01-20T15:19:13.491Z,1.35
2023-01-20T15:21:45.855Z,1.33
2023-01-20T15:24:30.937Z,1.30
2023-01-20T15:27:00.782Z,1.24
2023-01-20T15:29:30.423Z,1.26
2023-01-20T15:32:02.194Z,1.20
2023-01-20T15:34:29.811Z,1.23
2023-01-20T15:37:00.028Z,1.21
2023-01-20T15:39:31.421Z,1.19
2023-01-20T15:41:58.848Z,1.20
2023-01-20T15:44:26.545Z,1.18
2023-01-20T15:46:57.392Z,1.15
2023-01-20T15:49:25.758Z,1.12
2023-01-20T15:51:53.412Z,1.12
2023-01-20T15:54:23.069Z,1.15
2023-01-20T15:56:50.484Z,1.15
2023-01-20T15:59:22.489Z,1.14
2023-01-20T16:01:50.748Z,1.14
2023-01-20T16:04:21.372Z,1.13
2023-01-20T16:06:50.660Z,1.13
2023-01-20T16:09:25.814Z,1.14
2023-01-20T16:11:53.688Z,1.14
2023-01-20T16:14:21.545Z,1.12
2023-01-20T16:16:51.117Z,1.17
2023-01-20T16:19:18.922Z,1.12
2023-01-20T16:21:46.333Z,1.13
2023-01-20T16:24:16.617Z,1.08
2023-01-20T16:26:46.323Z,1.10
2023-01-20T16:29:16.000Z,1.10
2023-01-20T16:31:43.177Z,1.06
2023-01-20T16:34:10.578Z,1.07
2023-01-20T16:36:37.596Z,1.04
2023-01-20T16:39:06.117Z,1.07
2023-01-20T16:41:36.367Z,1.03
2023-01-20T16:44:04.498Z,1.06
2023-01-20T16:46:35.554Z,1.05
2023-01-20T16:49:03.619Z,1.04
2023-01-20T16:51:31.949Z,1.04
2023-01-20T16:54:00.234Z,1.09
2023-01-20T16:56:29.626Z,1.08
2023-01-20T16:58:58.695Z,1.07
2023-01-20T17:01:26.441Z,1.05
2023-01-20T17:03:57.264Z,1.12
2023-01-20T17:06:27.386Z,1.11
2023-01-20T17:08:57.911Z,1.11
2023-01-20T17:11:37.330Z,1.14
2023-01-20T17:14:07.319Z,1.12
2023-01-20T17:16:34.991Z,1.13
2023-01-20T17:19:03.152Z,1.16
2023-01-20T17:21:33.065Z,1.17
2023-01-20T17:24:05.165Z,1.18
2023-01-20T17:26:33.057Z,1.14
2023-01-20T17:29:03.588Z,1.15
2023-01-20T17:31:34.469Z,1.19
2023-01-20T17:34:04.307Z,1.23
2023-01-20T17:36:34.697Z,1.22
2023-01-20T17:39:04.066Z,1.24
2023-01-20T17:41:32.762Z,1.22
2023-01-20T17:44:00.586Z,1.24
2023-01-20T17:46:30.035Z,1.23
2023-01-20T17:48:59.056Z,1.22
2023-01-20T17:51:29.426Z,1.22
2023-01-20T17:54:03.656Z,1.25
2023-01-20T17:56:35.716Z,1.22
2023-01-20T17:59:03.367Z,1.22
2023-01-20T18:01:35.243Z,1.22
2023-01-20T18:04:09.666Z,1.23
2023-01-20T18:06:40.076Z,1.23
2023-01-20T18:09:10.606Z,1.24
2023-01-20T18:11:38.079Z,1.20
2023-01-20T18:14:07.271Z,1.23
2023-01-20T18:16:38.007Z,1.21
2023-01-20T18:19:05.945Z,1.21
2023-01-20T18:21:35.899Z,1.22
2023-01-20T18:24:07.512Z,1.23
2023-01-20T18:26:37.236Z,1.23
2023-01-20T18:29:12.951Z,1.22
2023-01-20T18:31:47.176Z,1.17
2023-01-20T18:34:16.144Z,1.19
2023-01-20T18:36:50.237Z,1.19
2023-01-20T18:39:26.532Z,1.19
2023-01-20T18:41:55.458Z,1.15
2023-01-20T18:44:23.919Z,1.15
2023-01-20T18:46:52.076Z,1.13
2023-01-20T18:49:20.181Z,1.11
2023-01-20T18:51:47.826Z,1.11
2023-01-20T18:54:19.279Z,1.12
2023-01-20T18:56:48.441Z,1.11
2023-01-20T18:59:16.780Z,1.09
2023-01-20T19:01:45.284Z,1.06
2023-01-20T19:04:14.163Z,1.08
2023-01-20T19:06:44.609Z,1.06
2023-01-20T19:09:14.008Z,1.05
2023-01-20T19:11:42.975Z,1.02
2023-01-20T19:14:14.085Z,1.00
2023-01-20T19:16:50.245Z,1.04
2023-01-20T19:19:19.951Z,1.02
2023-01-20T19:21:53.536Z,1.00
2023-01-20T19:24:22.417Z,0.97
2023-01-20T19:26:52.644Z,0.97
2023-01-20T19:29:24.267Z,0.93
2023-01-20T19:31:55.013Z,0.99
2023-01-20T19:34:24.216Z,1.00
2023-01-20T19:36:51.667Z,0.93
2023-01-20T19:39:24.221Z,0.95
2023-01-20T19:41:53.351Z,0.95
2023-01-20T19:44:24.019Z,0.92
2023-01-20T19:46:52.140Z,0.90
2023-01-20T19:49:23.730Z,0.90
2023-01-20T19:51:52.242Z,0.90
2023-01-20T19:54:26.256Z,0.89
2023-01-20T19:56:55.868Z,0.82
2023-01-20T19:59:24.459Z,0.85
2023-01-20T20:01:54.017Z,0.85
2023-01-20T20:04:25.257Z,0.84
2023-01-20T20:06:53.562Z,0.89
2023-01-20T20:09:26.718Z,0.86
2023-01-20T20:11:58.390Z,0.86
2023-01-20T20:14:31.711Z,0.86
2023-01-20T20:17:02.627Z,0.85
2023-01-20T20:19:32.264Z,0.85
2023-01-20T20:22:00.148Z,0.82
2023-01-20T20:24:29.847Z,0.87
2023-01-20T20:26:59.727Z,0.87
2023-01-20T20:29:31.096Z,0.88
2023-01-20T20:32:00.517Z,0.87
2023-01-20T20:34:29.361Z,0.89
2023-01-20T20:36:58.494Z,0.87
2023-01-20T20:39:27.546Z,0.86
2023-01-20T20:41:57.011Z,0.87
2023-01-20T20:44:25.799Z,0.88
2023-01-20T20:46:53.347Z,0.89
2023-01-20T20:49:22.433Z,0.89
2023-01-20T20:51:52.740Z,0.90
2023-01-20T20:54:25.157Z,0.92
2023-01-20T20:56:55.235Z,0.90
2023-01-20T20:59:25.269Z,0.90
2023-01-20T21:01:53.571Z,0.91
2023-01-20T21:04:23.245Z,0.87
2023-01-20T21:06:56.623Z,0.89
2023-01-20T21:09:26.419Z,0.85
2023-01-20T21:11:57.876Z,0.87
2023-01-20T21:14:26.341Z,0.85
2023-01-20T21:16:53.807Z,0.82
2023-01-20T21:19:24.421Z,0.82
2023-01-20T21:21:52.123Z,0.83
2023-01-20T21:24:20.337Z,0.80
2023-01-20T21:26:47.618Z,0.82
2023-01-20T21:29:15.795Z,0.82
2023-01-20T21:31:43.566Z,0.80
2023-01-20T21:34:15.615Z,0.74
2023-01-20T21:36:43.481Z,0.72
2023-01-20T21:39:13.459Z,0.69
2023-01-20T21:41:41.372Z,0.68
2023-01-20T21:44:29.615Z,0.65
2023-01-20T21:47:13.296Z,0.56
2023-01-20T21:49:59.477Z,0.49
2023-01-20T21:52:42.060Z,0.43
2023-01-20T21:55:24.228Z,0.34
2023-01-20T21:57:51.906Z,0.24
2023-01-20T22:00:20.196Z,0.22
2023-01-20T22:02:47.900Z,0.14
2023-01-20T22:05:15.457Z,0.11
2023-01-20T22:07:42.614Z,0.06
2023-01-20T22:10:10.973Z,-0.01
2023-01-20T22:12:38.176Z,-0.10
2023-01-20T22:15:06.093Z,-0.13
2023-01-20T22:17:33.423Z,-0.21
2023-01-20T22:20:01.027Z,-0.23
2023-01-20T22:22:28.134Z,-0.30
2023-01-20T22:24:55.611Z,-0.35
2023-01-20T22:27:22.766Z,-0.36
2023-01-20T22:29:50.422Z,-0.43
2023-01-20T22:32:17.411Z,-0.46
2023-01-20T22:34:44.773Z,-0.48
2023-01-20T22:37:11.959Z,-0.51
2023-01-20T22:39:39.301Z,-0.52
2023-01-20T22:42:06.751Z,-0.55
2023-01-20T22:44:34.142Z,-0.52
2023-01-20T22:47:01.677Z,-0.57
2023-01-20T22:49:29.956Z,-0.59
2023-01-20T22:51:57.016Z,-0.62
2023-01-20T22:54:24.368Z,-0.62
2023-01-20T22:56:51.425Z,-0.62
2023-01-20T22:59:18.737Z,-0.62
2023-01-20T23:01:45.869Z,-0.63
2023-01-20T23:04:13.480Z,-0.62
2023-01-20T23:06:40.626Z,-0.59
2023-01-20T23:09:11.099Z,-0.62
2023-01-20T23:11:41.815Z,-0.61
2023-01-20T23:14:13.494Z,-0.62
2023-01-20T23:16:42.111Z,-0.55
2023-01-20T23:19:10.636Z,-0.60
2023-01-20T23:21:37.673Z,-0.61
2023-01-20T23:24:05.556Z,-0.60
2023-01-20T23:26:34.367Z,-0.63
2023-01-20T23:29:01.666Z,-0.63
2023-01-20T23:31:33.253Z,-0.63
2023-01-20T23:34:00.730Z,-0.59
2023-01-20T23:36:27.730Z,-0.61
2023-01-20T23:38:56.363Z,-0.57
2023-01-20T23:41:23.640Z,-0.61
2023-01-20T23:43:51.410Z,-0.58
2023-01-20T23:46:20.646Z,-0.61
2023-01-20T23:48:48.134Z,-0.59
2023-01-20T23:51:18.284Z,-0.56
2023-01-20T23:53:45.737Z,-0.60
2023-01-20T23:56:17.990Z,-0.58
2023-01-20T23:58:46.183Z,-0.57
